sensor_id;sensor_type;location;lat;lon;timestamp;P1;durP1;ratioP1;P2;durP2;ratioP2
51006;SDS011;37034;47.886;-3.904;2023-05-07T00:01:56;4.22;;;1.55;;
51006;SDS011;37034;47.886;-3.904;2023-05-07T00:04:22;7.23;;;1.40;;
51006;SDS011;37034;47.886;-3.904;2023-05-07T00:06:48;3.65;;;1.35;;
51006;SDS011;37034;47.886;-3.904;2023-05-07T00:09:13;4.37;;;1.63;;
51006;SDS011;37034;47.886;-3.904;2023-05-07T00:11:39;5.63;;;1.50;;
51006;SDS011;37034;47.886;-3.904;2023-05-07T00:14:05;4.72;;;1.65;;
51006;SDS011;37034;47.886;-3.904;2023-05-07T00:16:31;5.10;;;1.35;;
51006;SDS011;37034;47.886;-3.904;2023-05-07T00:18:57;7.55;;;1.60;;
51006;SDS011;37034;47.886;-3.904;2023-05-07T00:21:22;4.07;;;1.37;;
51006;SDS011;37034;47.886;-3.904;2023-05-07T00:23:51;6.28;;;1.60;;
51006;SDS011;37034;47.886;-3.904;2023-05-07T00:26:17;6.45;;;2.10;;
51006;SDS011;37034;47.886;-3.904;2023-05-07T00:28:43;3.58;;;1.70;;
51006;SDS011;37034;47.886;-3.904;2023-05-07T00:31:09;5.35;;;1.73;;
51006;SDS011;37034;47.886;-3.904;2023-05-07T00:33:35;4.20;;;1.80;;
51006;SDS011;37034;47.886;-3.904;2023-05-07T00:36:00;5.88;;;2.00;;
51006;SDS011;37034;47.886;-3.904;2023-05-07T00:38:26;6.25;;;2.05;;
51006;SDS011;37034;47.886;-3.904;2023-05-07T00:40:52;7.95;;;2.22;;
51006;SDS011;37034;47.886;-3.904;2023-05-07T00:43:18;5.53;;;2.47;;
51006;SDS011;37034;47.886;-3.904;2023-05-07T00:45:43;7.70;;;1.97;;
51006;SDS011;37034;47.886;-3.904;2023-05-07T00:48:09;4.03;;;1.67;;
51006;SDS011;37034;47.886;-3.904;2023-05-07T00:50:35;7.45;;;1.98;;
51006;SDS011;37034;47.886;-3.904;2023-05-07T00:53:01;5.18;;;1.65;;
51006;SDS011;37034;47.886;-3.904;2023-05-07T00:57:53;6.90;;;1.52;;
51006;SDS011;37034;47.886;-3.904;2023-05-07T01:00:19;2.65;;;1.15;;
51006;SDS011;37034;47.886;-3.904;2023-05-07T01:02:45;3.53;;;1.23;;
51006;SDS011;37034;47.886;-3.904;2023-05-07T01:05:12;4.28;;;1.40;;
51006;SDS011;37034;47.886;-3.904;2023-05-07T01:07:40;2.90;;;1.38;;
51006;SDS011;37034;47.886;-3.904;2023-05-07T01:10:07;4.63;;;1.70;;
51006;SDS011;37034;47.886;-3.904;2023-05-07T01:12:35;4.47;;;2.05;;
51006;SDS011;37034;47.886;-3.904;2023-05-07T01:15:04;3.60;;;2.00;;
51006;SDS011;37034;47.886;-3.904;2023-05-07T01:17:35;4.78;;;1.70;;
51006;SDS011;37034;47.886;-3.904;2023-05-07T01:20:03;2.70;;;1.50;;
51006;SDS011;37034;47.886;-3.904;2023-05-07T01:22:39;5.80;;;1.67;;
51006;SDS011;37034;47.886;-3.904;2023-05-07T01:25:06;4.20;;;1.80;;
51006;SDS011;37034;47.886;-3.904;2023-05-07T01:27:33;5.32;;;1.85;;
51006;SDS011;37034;47.886;-3.904;2023-05-07T01:30:00;4.22;;;1.95;;
51006;SDS011;37034;47.886;-3.904;2023-05-07T01:32:28;3.42;;;1.95;;
51006;SDS011;37034;47.886;-3.904;2023-05-07T01:35:00;5.65;;;2.00;;
51006;SDS011;37034;47.886;-3.904;2023-05-07T01:37:28;4.95;;;2.38;;
51006;SDS011;37034;47.886;-3.904;2023-05-07T01:39:54;4.35;;;2.53;;
51006;SDS011;37034;47.886;-3.904;2023-05-07T01:42:21;4.30;;;3.10;;
51006;SDS011;37034;47.886;-3.904;2023-05-07T01:44:47;7.80;;;4.13;;
51006;SDS011;37034;47.886;-3.904;2023-05-07T01:47:13;4.45;;;3.30;;
51006;SDS011;37034;47.886;-3.904;2023-05-07T01:49:39;6.05;;;3.63;;
51006;SDS011;37034;47.886;-3.904;2023-05-07T01:52:06;5.28;;;3.28;;
51006;SDS011;37034;47.886;-3.904;2023-05-07T01:54:33;6.10;;;3.13;;
51006;SDS011;37034;47.886;-3.904;2023-05-07T01:56:59;3.70;;;2.60;;
51006;SDS011;37034;47.886;-3.904;2023-05-07T01:59:25;4.70;;;2.67;;
51006;SDS011;37034;47.886;-3.904;2023-05-07T02:01:50;4.33;;;2.40;;
51006;SDS011;37034;47.886;-3.904;2023-05-07T02:04:17;4.28;;;2.25;;
51006;SDS011;37034;47.886;-3.904;2023-05-07T02:06:42;4.45;;;2.00;;
51006;SDS011;37034;47.886;-3.904;2023-05-07T02:09:08;6.38;;;2.45;;
51006;SDS011;37034;47.886;-3.904;2023-05-07T02:11:34;4.28;;;1.90;;
51006;SDS011;37034;47.886;-3.904;2023-05-07T02:13:59;3.33;;;1.70;;
51006;SDS011;37034;47.886;-3.904;2023-05-07T02:16:25;4.95;;;2.00;;
51006;SDS011;37034;47.886;-3.904;2023-05-07T02:18:51;5.20;;;2.10;;
51006;SDS011;37034;47.886;-3.904;2023-05-07T02:21:17;3.77;;;2.30;;
51006;SDS011;37034;47.886;-3.904;2023-05-07T02:23:42;4.80;;;2.33;;
51006;SDS011;37034;47.886;-3.904;2023-05-07T02:26:08;7.20;;;1.98;;
51006;SDS011;37034;47.886;-3.904;2023-05-07T02:28:34;3.78;;;1.80;;
51006;SDS011;37034;47.886;-3.904;2023-05-07T02:31:03;4.15;;;2.22;;
51006;SDS011;37034;47.886;-3.904;2023-05-07T02:33:29;4.55;;;2.10;;
51006;SDS011;37034;47.886;-3.904;2023-05-07T02:35:55;4.20;;;2.38;;
51006;SDS011;37034;47.886;-3.904;2023-05-07T02:38:21;5.37;;;2.20;;
51006;SDS011;37034;47.886;-3.904;2023-05-07T02:40:47;3.20;;;2.03;;
51006;SDS011;37034;47.886;-3.904;2023-05-07T02:43:13;4.55;;;1.75;;
51006;SDS011;37034;47.886;-3.904;2023-05-07T02:45:39;3.75;;;1.90;;
51006;SDS011;37034;47.886;-3.904;2023-05-07T02:48:04;3.17;;;1.80;;
51006;SDS011;37034;47.886;-3.904;2023-05-07T02:52:57;3.20;;;1.65;;
51006;SDS011;37034;47.886;-3.904;2023-05-07T02:55:23;3.08;;;1.80;;
51006;SDS011;37034;47.886;-3.904;2023-05-07T02:57:49;3.05;;;1.85;;
51006;SDS011;37034;47.886;-3.904;2023-05-07T03:00:16;4.90;;;2.00;;
51006;SDS011;37034;47.886;-3.904;2023-05-07T03:02:43;3.90;;;1.73;;
51006;SDS011;37034;47.886;-3.904;2023-05-07T03:05:09;4.88;;;2.20;;
51006;SDS011;37034;47.886;-3.904;2023-05-07T03:07:36;2.90;;;2.08;;
51006;SDS011;37034;47.886;-3.904;2023-05-07T03:10:02;5.00;;;2.20;;
51006;SDS011;37034;47.886;-3.904;2023-05-07T03:12:28;3.45;;;2.20;;
51006;SDS011;37034;47.886;-3.904;2023-05-07T03:14:54;7.03;;;2.70;;
51006;SDS011;37034;47.886;-3.904;2023-05-07T03:17:20;4.33;;;2.37;;
51006;SDS011;37034;47.886;-3.904;2023-05-07T03:19:46;4.45;;;2.72;;
51006;SDS011;37034;47.886;-3.904;2023-05-07T03:22:12;3.92;;;2.33;;
51006;SDS011;37034;47.886;-3.904;2023-05-07T03:24:37;4.32;;;2.40;;
51006;SDS011;37034;47.886;-3.904;2023-05-07T03:27:03;8.25;;;2.90;;
51006;SDS011;37034;47.886;-3.904;2023-05-07T03:29:29;3.70;;;2.40;;
51006;SDS011;37034;47.886;-3.904;2023-05-07T03:31:54;5.97;;;2.43;;
51006;SDS011;37034;47.886;-3.904;2023-05-07T03:34:20;3.42;;;2.00;;
51006;SDS011;37034;47.886;-3.904;2023-05-07T03:36:50;3.13;;;1.70;;
51006;SDS011;37034;47.886;-3.904;2023-05-07T03:39:16;3.42;;;1.73;;
51006;SDS011;37034;47.886;-3.904;2023-05-07T03:41:41;5.30;;;1.80;;
51006;SDS011;37034;47.886;-3.904;2023-05-07T03:44:07;4.00;;;1.98;;
51006;SDS011;37034;47.886;-3.904;2023-05-07T03:46:33;5.83;;;2.33;;
51006;SDS011;37034;47.886;-3.904;2023-05-07T03:48:59;4.50;;;2.22;;
51006;SDS011;37034;47.886;-3.904;2023-05-07T03:51:25;6.85;;;2.00;;
51006;SDS011;37034;47.886;-3.904;2023-05-07T03:53:51;6.03;;;2.42;;
51006;SDS011;37034;47.886;-3.904;2023-05-07T03:56:22;6.80;;;1.95;;
51006;SDS011;37034;47.886;-3.904;2023-05-07T03:58:51;4.97;;;2.00;;
51006;SDS011;37034;47.886;-3.904;2023-05-07T04:01:17;3.50;;;1.90;;
51006;SDS011;37034;47.886;-3.904;2023-05-07T04:03:42;3.57;;;2.10;;
51006;SDS011;37034;47.886;-3.904;2023-05-07T04:06:08;4.32;;;2.13;;
51006;SDS011;37034;47.886;-3.904;2023-05-07T04:08:34;3.88;;;2.13;;
51006;SDS011;37034;47.886;-3.904;2023-05-07T04:11:00;3.77;;;1.87;;
51006;SDS011;37034;47.886;-3.904;2023-05-07T04:13:25;3.88;;;2.30;;
51006;SDS011;37034;47.886;-3.904;2023-05-07T04:15:52;3.43;;;1.70;;
51006;SDS011;37034;47.886;-3.904;2023-05-07T04:18:19;5.38;;;2.33;;
51006;SDS011;37034;47.886;-3.904;2023-05-07T04:20:45;5.22;;;2.03;;
51006;SDS011;37034;47.886;-3.904;2023-05-07T04:23:10;12.02;;;2.67;;
51006;SDS011;37034;47.886;-3.904;2023-05-07T04:25:36;6.32;;;1.92;;
51006;SDS011;37034;47.886;-3.904;2023-05-07T04:28:02;5.27;;;2.30;;
51006;SDS011;37034;47.886;-3.904;2023-05-07T04:30:27;3.22;;;1.65;;
51006;SDS011;37034;47.886;-3.904;2023-05-07T04:32:53;4.20;;;1.50;;
51006;SDS011;37034;47.886;-3.904;2023-05-07T04:35:19;3.47;;;1.50;;
51006;SDS011;37034;47.886;-3.904;2023-05-07T04:37:44;3.15;;;1.67;;
51006;SDS011;37034;47.886;-3.904;2023-05-07T04:40:10;3.25;;;1.63;;
51006;SDS011;37034;47.886;-3.904;2023-05-07T04:42:36;3.58;;;1.60;;
51006;SDS011;37034;47.886;-3.904;2023-05-07T04:45:02;2.97;;;1.70;;
51006;SDS011;37034;47.886;-3.904;2023-05-07T04:47:28;3.40;;;1.88;;
51006;SDS011;37034;47.886;-3.904;2023-05-07T04:49:53;5.03;;;1.93;;
51006;SDS011;37034;47.886;-3.904;2023-05-07T04:52:19;4.03;;;1.70;;
51006;SDS011;37034;47.886;-3.904;2023-05-07T04:54:45;2.75;;;1.55;;
51006;SDS011;37034;47.886;-3.904;2023-05-07T04:57:10;3.83;;;1.67;;
51006;SDS011;37034;47.886;-3.904;2023-05-07T04:59:36;3.42;;;1.33;;
51006;SDS011;37034;47.886;-3.904;2023-05-07T05:02:02;2.10;;;1.23;;
51006;SDS011;37034;47.886;-3.904;2023-05-07T05:04:29;3.67;;;1.58;;
51006;SDS011;37034;47.886;-3.904;2023-05-07T05:06:55;2.90;;;1.50;;
51006;SDS011;37034;47.886;-3.904;2023-05-07T05:09:21;3.50;;;1.52;;
51006;SDS011;37034;47.886;-3.904;2023-05-07T05:11:47;6.38;;;1.80;;
51006;SDS011;37034;47.886;-3.904;2023-05-07T05:14:13;3.75;;;1.20;;
51006;SDS011;37034;47.886;-3.904;2023-05-07T05:16:38;2.40;;;1.30;;
51006;SDS011;37034;47.886;-3.904;2023-05-07T05:19:04;3.20;;;1.40;;
51006;SDS011;37034;47.886;-3.904;2023-05-07T05:21:31;2.10;;;1.00;;
51006;SDS011;37034;47.886;-3.904;2023-05-07T05:23:57;5.15;;;1.00;;
51006;SDS011;37034;47.886;-3.904;2023-05-07T05:26:23;4.07;;;0.77;;
51006;SDS011;37034;47.886;-3.904;2023-05-07T05:28:48;5.97;;;0.70;;
51006;SDS011;37034;47.886;-3.904;2023-05-07T05:31:15;2.58;;;0.82;;
51006;SDS011;37034;47.886;-3.904;2023-05-07T05:33:41;1.20;;;0.60;;
51006;SDS011;37034;47.886;-3.904;2023-05-07T05:36:08;1.03;;;0.57;;
51006;SDS011;37034;47.886;-3.904;2023-05-07T05:38:35;2.80;;;0.90;;
51006;SDS011;37034;47.886;-3.904;2023-05-07T05:41:01;3.70;;;0.90;;
51006;SDS011;37034;47.886;-3.904;2023-05-07T05:43:26;6.88;;;1.30;;
51006;SDS011;37034;47.886;-3.904;2023-05-07T05:45:52;2.93;;;1.07;;
51006;SDS011;37034;47.886;-3.904;2023-05-07T05:48:17;2.87;;;1.00;;
51006;SDS011;37034;47.886;-3.904;2023-05-07T05:50:43;3.53;;;1.15;;
51006;SDS011;37034;47.886;-3.904;2023-05-07T05:53:09;2.33;;;1.10;;
51006;SDS011;37034;47.886;-3.904;2023-05-07T05:55:34;1.70;;;0.83;;
51006;SDS011;37034;47.886;-3.904;2023-05-07T05:58:00;2.50;;;0.70;;
51006;SDS011;37034;47.886;-3.904;2023-05-07T06:00:26;2.13;;;1.00;;
51006;SDS011;37034;47.886;-3.904;2023-05-07T06:02:52;5.80;;;1.05;;
51006;SDS011;37034;47.886;-3.904;2023-05-07T06:05:18;2.20;;;1.00;;
51006;SDS011;37034;47.886;-3.904;2023-05-07T06:07:44;1.50;;;0.60;;
51006;SDS011;37034;47.886;-3.904;2023-05-07T06:10:09;2.10;;;1.00;;
51006;SDS011;37034;47.886;-3.904;2023-05-07T06:12:35;2.78;;;1.00;;
51006;SDS011;37034;47.886;-3.904;2023-05-07T06:15:01;1.27;;;0.70;;
51006;SDS011;37034;47.886;-3.904;2023-05-07T06:17:27;1.80;;;0.90;;
51006;SDS011;37034;47.886;-3.904;2023-05-07T06:19:52;2.00;;;0.80;;
51006;SDS011;37034;47.886;-3.904;2023-05-07T06:22:18;2.30;;;0.77;;
51006;SDS011;37034;47.886;-3.904;2023-05-07T06:24:44;3.13;;;1.00;;
51006;SDS011;37034;47.886;-3.904;2023-05-07T06:27:10;4.35;;;0.85;;
51006;SDS011;37034;47.886;-3.904;2023-05-07T06:29:35;3.60;;;1.58;;
51006;SDS011;37034;47.886;-3.904;2023-05-07T06:32:11;3.35;;;1.58;;
51006;SDS011;37034;47.886;-3.904;2023-05-07T06:34:38;3.35;;;1.60;;
51006;SDS011;37034;47.886;-3.904;2023-05-07T06:37:04;3.55;;;1.58;;
51006;SDS011;37034;47.886;-3.904;2023-05-07T06:39:30;4.53;;;1.77;;
51006;SDS011;37034;47.886;-3.904;2023-05-07T06:41:56;3.90;;;1.90;;
51006;SDS011;37034;47.886;-3.904;2023-05-07T06:44:22;4.10;;;1.83;;
51006;SDS011;37034;47.886;-3.904;2023-05-07T06:46:48;4.65;;;1.77;;
51006;SDS011;37034;47.886;-3.904;2023-05-07T06:49:13;6.25;;;1.75;;
51006;SDS011;37034;47.886;-3.904;2023-05-07T06:51:39;3.00;;;1.85;;
51006;SDS011;37034;47.886;-3.904;2023-05-07T06:54:05;3.80;;;1.75;;
51006;SDS011;37034;47.886;-3.904;2023-05-07T06:56:31;3.03;;;1.55;;
51006;SDS011;37034;47.886;-3.904;2023-05-07T06:58:57;4.38;;;2.05;;
51006;SDS011;37034;47.886;-3.904;2023-05-07T07:01:24;7.20;;;2.08;;
51006;SDS011;37034;47.886;-3.904;2023-05-07T07:03:50;4.83;;;2.37;;
51006;SDS011;37034;47.886;-3.904;2023-05-07T07:06:16;5.03;;;2.67;;
51006;SDS011;37034;47.886;-3.904;2023-05-07T07:08:41;4.30;;;2.43;;
51006;SDS011;37034;47.886;-3.904;2023-05-07T07:11:08;4.45;;;2.50;;
51006;SDS011;37034;47.886;-3.904;2023-05-07T07:13:35;5.68;;;2.20;;
51006;SDS011;37034;47.886;-3.904;2023-05-07T07:16:00;4.05;;;2.30;;
51006;SDS011;37034;47.886;-3.904;2023-05-07T07:18:26;4.90;;;2.58;;
51006;SDS011;37034;47.886;-3.904;2023-05-07T07:20:52;4.57;;;2.40;;
51006;SDS011;37034;47.886;-3.904;2023-05-07T07:23:18;8.35;;;2.38;;
51006;SDS011;37034;47.886;-3.904;2023-05-07T07:25:44;5.07;;;2.80;;
51006;SDS011;37034;47.886;-3.904;2023-05-07T07:28:09;6.78;;;3.20;;
51006;SDS011;37034;47.886;-3.904;2023-05-07T07:30:36;5.88;;;2.85;;
51006;SDS011;37034;47.886;-3.904;2023-05-07T07:33:02;6.88;;;2.70;;
51006;SDS011;37034;47.886;-3.904;2023-05-07T07:35:34;5.22;;;2.28;;
51006;SDS011;37034;47.886;-3.904;2023-05-07T07:37:59;5.50;;;2.00;;
51006;SDS011;37034;47.886;-3.904;2023-05-07T07:42:52;4.90;;;1.98;;
51006;SDS011;37034;47.886;-3.904;2023-05-07T07:45:19;5.20;;;1.88;;
51006;SDS011;37034;47.886;-3.904;2023-05-07T07:47:45;5.95;;;2.20;;
51006;SDS011;37034;47.886;-3.904;2023-05-07T07:50:11;4.25;;;2.30;;
51006;SDS011;37034;47.886;-3.904;2023-05-07T07:52:37;6.10;;;2.42;;
51006;SDS011;37034;47.886;-3.904;2023-05-07T07:55:02;4.30;;;2.33;;
51006;SDS011;37034;47.886;-3.904;2023-05-07T07:57:29;6.30;;;2.13;;
51006;SDS011;37034;47.886;-3.904;2023-05-07T07:59:55;5.43;;;2.40;;
51006;SDS011;37034;47.886;-3.904;2023-05-07T08:02:20;5.03;;;2.38;;
51006;SDS011;37034;47.886;-3.904;2023-05-07T08:04:46;4.00;;;2.15;;
51006;SDS011;37034;47.886;-3.904;2023-05-07T08:07:12;5.93;;;2.90;;
51006;SDS011;37034;47.886;-3.904;2023-05-07T08:09:38;5.80;;;2.88;;
51006;SDS011;37034;47.886;-3.904;2023-05-07T08:12:05;8.20;;;3.33;;
51006;SDS011;37034;47.886;-3.904;2023-05-07T08:14:31;7.35;;;3.75;;
51006;SDS011;37034;47.886;-3.904;2023-05-07T08:16:57;5.85;;;2.83;;
51006;SDS011;37034;47.886;-3.904;2023-05-07T08:19:22;8.23;;;4.20;;
51006;SDS011;37034;47.886;-3.904;2023-05-07T08:21:48;7.55;;;4.30;;
51006;SDS011;37034;47.886;-3.904;2023-05-07T08:24:14;7.82;;;4.10;;
51006;SDS011;37034;47.886;-3.904;2023-05-07T08:26:40;8.18;;;4.22;;
51006;SDS011;37034;47.886;-3.904;2023-05-07T08:29:06;7.72;;;3.88;;
51006;SDS011;37034;47.886;-3.904;2023-05-07T08:31:32;9.23;;;4.00;;
51006;SDS011;37034;47.886;-3.904;2023-05-07T08:33:58;7.78;;;3.55;;
51006;SDS011;37034;47.886;-3.904;2023-05-07T08:36:24;7.00;;;3.78;;
51006;SDS011;37034;47.886;-3.904;2023-05-07T08:38:51;6.65;;;3.35;;
51006;SDS011;37034;47.886;-3.904;2023-05-07T08:41:17;4.78;;;2.10;;
51006;SDS011;37034;47.886;-3.904;2023-05-07T08:43:43;4.70;;;2.13;;
51006;SDS011;37034;47.886;-3.904;2023-05-07T08:46:18;4.60;;;2.08;;
51006;SDS011;37034;47.886;-3.904;2023-05-07T08:48:49;4.57;;;2.50;;
51006;SDS011;37034;47.886;-3.904;2023-05-07T08:51:16;4.85;;;2.22;;
51006;SDS011;37034;47.886;-3.904;2023-05-07T08:53:43;4.13;;;2.10;;
51006;SDS011;37034;47.886;-3.904;2023-05-07T08:56:09;4.43;;;2.05;;
51006;SDS011;37034;47.886;-3.904;2023-05-07T08:58:35;3.08;;;1.52;;
51006;SDS011;37034;47.886;-3.904;2023-05-07T09:01:02;6.15;;;1.95;;
51006;SDS011;37034;47.886;-3.904;2023-05-07T09:03:32;4.85;;;1.77;;
51006;SDS011;37034;47.886;-3.904;2023-05-07T09:05:58;4.78;;;1.52;;
51006;SDS011;37034;47.886;-3.904;2023-05-07T09:08:25;3.90;;;1.40;;
51006;SDS011;37034;47.886;-3.904;2023-05-07T09:10:52;4.20;;;1.45;;
51006;SDS011;37034;47.886;-3.904;2023-05-07T09:13:18;3.70;;;1.83;;
51006;SDS011;37034;47.886;-3.904;2023-05-07T09:15:44;6.90;;;1.80;;
51006;SDS011;37034;47.886;-3.904;2023-05-07T09:18:10;5.50;;;1.80;;
51006;SDS011;37034;47.886;-3.904;2023-05-07T09:20:36;5.72;;;1.50;;
51006;SDS011;37034;47.886;-3.904;2023-05-07T09:23:02;6.05;;;2.38;;
51006;SDS011;37034;47.886;-3.904;2023-05-07T09:25:29;6.93;;;3.50;;
51006;SDS011;37034;47.886;-3.904;2023-05-07T09:27:56;4.55;;;2.30;;
51006;SDS011;37034;47.886;-3.904;2023-05-07T09:30:21;2.75;;;1.45;;
51006;SDS011;37034;47.886;-3.904;2023-05-07T09:32:47;3.88;;;1.55;;
51006;SDS011;37034;47.886;-3.904;2023-05-07T09:35:16;3.13;;;1.42;;
51006;SDS011;37034;47.886;-3.904;2023-05-07T09:37:42;5.35;;;1.98;;
51006;SDS011;37034;47.886;-3.904;2023-05-07T09:40:08;3.83;;;1.95;;
51006;SDS011;37034;47.886;-3.904;2023-05-07T09:42:48;2.85;;;1.30;;
51006;SDS011;37034;47.886;-3.904;2023-05-07T09:45:15;5.13;;;1.58;;
51006;SDS011;37034;47.886;-3.904;2023-05-07T09:47:42;2.70;;;0.77;;
51006;SDS011;37034;47.886;-3.904;2023-05-07T09:50:12;3.50;;;1.05;;
51006;SDS011;37034;47.886;-3.904;2023-05-07T09:52:40;2.55;;;0.70;;
51006;SDS011;37034;47.886;-3.904;2023-05-07T09:55:07;3.13;;;0.70;;
51006;SDS011;37034;47.886;-3.904;2023-05-07T09:57:33;2.13;;;0.57;;
51006;SDS011;37034;47.886;-3.904;2023-05-07T10:02:29;3.47;;;0.80;;
51006;SDS011;37034;47.886;-3.904;2023-05-07T10:04:56;2.10;;;0.65;;
51006;SDS011;37034;47.886;-3.904;2023-05-07T10:07:25;3.95;;;0.60;;
51006;SDS011;37034;47.886;-3.904;2023-05-07T10:12:18;6.82;;;1.77;;
51006;SDS011;37034;47.886;-3.904;2023-05-07T10:17:11;8.57;;;1.30;;
51006;SDS011;37034;47.886;-3.904;2023-05-07T10:19:37;5.75;;;1.38;;
51006;SDS011;37034;47.886;-3.904;2023-05-07T10:22:05;6.22;;;1.50;;
51006;SDS011;37034;47.886;-3.904;2023-05-07T10:24:31;8.07;;;2.30;;
51006;SDS011;37034;47.886;-3.904;2023-05-07T10:27:02;8.85;;;2.13;;
51006;SDS011;37034;47.886;-3.904;2023-05-07T10:34:54;7.38;;;1.23;;
51006;SDS011;37034;47.886;-3.904;2023-05-07T10:37:24;6.30;;;1.60;;
51006;SDS011;37034;47.886;-3.904;2023-05-07T10:39:50;7.65;;;1.52;;
51006;SDS011;37034;47.886;-3.904;2023-05-07T10:42:17;8.05;;;1.42;;
51006;SDS011;37034;47.886;-3.904;2023-05-07T10:44:42;7.68;;;1.88;;
51006;SDS011;37034;47.886;-3.904;2023-05-07T10:47:12;6.90;;;1.85;;
51006;SDS011;37034;47.886;-3.904;2023-05-07T10:54:46;6.60;;;1.30;;
51006;SDS011;37034;47.886;-3.904;2023-05-07T10:57:33;4.90;;;1.73;;
51006;SDS011;37034;47.886;-3.904;2023-05-07T11:00:40;6.50;;;1.40;;
51006;SDS011;37034;47.886;-3.904;2023-05-07T11:05:27;5.47;;;1.30;;
51006;SDS011;37034;47.886;-3.904;2023-05-07T11:07:57;7.30;;;1.33;;
51006;SDS011;37034;47.886;-3.904;2023-05-07T11:10:26;8.73;;;1.63;;
51006;SDS011;37034;47.886;-3.904;2023-05-07T11:13:41;8.07;;;1.55;;
51006;SDS011;37034;47.886;-3.904;2023-05-07T11:16:21;9.07;;;1.40;;
51006;SDS011;37034;47.886;-3.904;2023-05-07T11:18:54;6.28;;;1.60;;
51006;SDS011;37034;47.886;-3.904;2023-05-07T11:21:34;6.65;;;1.70;;
51006;SDS011;37034;47.886;-3.904;2023-05-07T11:24:05;9.45;;;1.92;;
51006;SDS011;37034;47.886;-3.904;2023-05-07T11:26:47;6.45;;;1.30;;
51006;SDS011;37034;47.886;-3.904;2023-05-07T11:29:18;9.10;;;1.55;;
51006;SDS011;37034;47.886;-3.904;2023-05-07T11:31:51;7.10;;;1.25;;
51006;SDS011;37034;47.886;-3.904;2023-05-07T11:34:21;8.13;;;1.50;;
51006;SDS011;37034;47.886;-3.904;2023-05-07T11:36:48;6.53;;;1.50;;
51006;SDS011;37034;47.886;-3.904;2023-05-07T11:39:24;7.30;;;1.63;;
51006;SDS011;37034;47.886;-3.904;2023-05-07T11:41:54;4.47;;;1.10;;
51006;SDS011;37034;47.886;-3.904;2023-05-07T11:44:20;6.85;;;1.20;;
51006;SDS011;37034;47.886;-3.904;2023-05-07T11:46:46;6.80;;;1.10;;
51006;SDS011;37034;47.886;-3.904;2023-05-07T11:49:13;5.18;;;1.40;;
51006;SDS011;37034;47.886;-3.904;2023-05-07T11:51:39;5.63;;;1.55;;
51006;SDS011;37034;47.886;-3.904;2023-05-07T11:54:07;6.40;;;1.23;;
51006;SDS011;37034;47.886;-3.904;2023-05-07T11:56:36;7.82;;;1.67;;
51006;SDS011;37034;47.886;-3.904;2023-05-07T11:59:02;5.60;;;1.35;;
51006;SDS011;37034;47.886;-3.904;2023-05-07T12:01:29;5.13;;;1.40;;
51006;SDS011;37034;47.886;-3.904;2023-05-07T12:03:55;4.00;;;0.95;;
51006;SDS011;37034;47.886;-3.904;2023-05-07T12:06:21;7.22;;;1.60;;
51006;SDS011;37034;47.886;-3.904;2023-05-07T12:08:46;5.95;;;1.40;;
51006;SDS011;37034;47.886;-3.904;2023-05-07T12:11:13;7.20;;;1.95;;
51006;SDS011;37034;47.886;-3.904;2023-05-07T12:13:42;6.32;;;1.50;;
51006;SDS011;37034;47.886;-3.904;2023-05-07T12:16:08;4.50;;;1.55;;
51006;SDS011;37034;47.886;-3.904;2023-05-07T12:18:35;7.75;;;2.47;;
51006;SDS011;37034;47.886;-3.904;2023-05-07T12:21:01;4.30;;;1.15;;
51006;SDS011;37034;47.886;-3.904;2023-05-07T12:23:28;6.10;;;1.40;;
51006;SDS011;37034;47.886;-3.904;2023-05-07T12:28:19;6.22;;;1.10;;
51006;SDS011;37034;47.886;-3.904;2023-05-07T12:30:46;8.00;;;1.73;;
51006;SDS011;37034;47.886;-3.904;2023-05-07T12:33:16;4.88;;;1.40;;
51006;SDS011;37034;47.886;-3.904;2023-05-07T12:35:43;4.95;;;1.08;;
51006;SDS011;37034;47.886;-3.904;2023-05-07T12:38:09;7.65;;;1.38;;
51006;SDS011;37034;47.886;-3.904;2023-05-07T12:40:49;4.20;;;0.90;;
51006;SDS011;37034;47.886;-3.904;2023-05-07T12:43:24;3.90;;;1.30;;
51006;SDS011;37034;47.886;-3.904;2023-05-07T12:45:51;6.18;;;1.27;;
51006;SDS011;37034;47.886;-3.904;2023-05-07T12:48:19;7.53;;;1.48;;
51006;SDS011;37034;47.886;-3.904;2023-05-07T12:50:44;6.18;;;1.30;;
51006;SDS011;37034;47.886;-3.904;2023-05-07T12:53:11;6.93;;;1.52;;
51006;SDS011;37034;47.886;-3.904;2023-05-07T12:55:47;6.68;;;1.40;;
51006;SDS011;37034;47.886;-3.904;2023-05-07T13:00:44;5.18;;;1.20;;
51006;SDS011;37034;47.886;-3.904;2023-05-07T13:03:10;5.18;;;1.30;;
51006;SDS011;37034;47.886;-3.904;2023-05-07T13:05:36;5.70;;;1.17;;
51006;SDS011;37034;47.886;-3.904;2023-05-07T13:08:02;4.72;;;1.05;;
51006;SDS011;37034;47.886;-3.904;2023-05-07T13:10:28;6.88;;;1.20;;
51006;SDS011;37034;47.886;-3.904;2023-05-07T13:12:53;2.95;;;1.02;;
51006;SDS011;37034;47.886;-3.904;2023-05-07T13:15:19;6.63;;;1.52;;
51006;SDS011;37034;47.886;-3.904;2023-05-07T13:17:46;6.25;;;1.30;;
51006;SDS011;37034;47.886;-3.904;2023-05-07T13:20:11;6.80;;;1.35;;
51006;SDS011;37034;47.886;-3.904;2023-05-07T13:22:40;7.10;;;1.67;;
51006;SDS011;37034;47.886;-3.904;2023-05-07T13:25:06;5.68;;;1.30;;
51006;SDS011;37034;47.886;-3.904;2023-05-07T13:27:32;4.82;;;1.27;;
51006;SDS011;37034;47.886;-3.904;2023-05-07T13:30:01;4.22;;;1.10;;
51006;SDS011;37034;47.886;-3.904;2023-05-07T13:32:28;7.72;;;1.25;;
51006;SDS011;37034;47.886;-3.904;2023-05-07T13:34:55;4.60;;;1.08;;
51006;SDS011;37034;47.886;-3.904;2023-05-07T13:37:20;5.80;;;1.27;;
51006;SDS011;37034;47.886;-3.904;2023-05-07T13:39:46;4.50;;;1.10;;
51006;SDS011;37034;47.886;-3.904;2023-05-07T13:42:12;6.20;;;1.35;;
51006;SDS011;37034;47.886;-3.904;2023-05-07T13:44:38;7.10;;;1.50;;
51006;SDS011;37034;47.886;-3.904;2023-05-07T13:47:03;6.68;;;1.40;;
51006;SDS011;37034;47.886;-3.904;2023-05-07T13:49:29;5.38;;;1.30;;
51006;SDS011;37034;47.886;-3.904;2023-05-07T13:51:55;5.10;;;1.63;;
51006;SDS011;37034;47.886;-3.904;2023-05-07T13:54:20;7.80;;;2.08;;
51006;SDS011;37034;47.886;-3.904;2023-05-07T13:56:46;4.05;;;1.15;;
51006;SDS011;37034;47.886;-3.904;2023-05-07T13:59:12;5.75;;;1.20;;
51006;SDS011;37034;47.886;-3.904;2023-05-07T14:01:39;8.50;;;1.77;;
51006;SDS011;37034;47.886;-3.904;2023-05-07T14:06:31;5.05;;;1.20;;
51006;SDS011;37034;47.886;-3.904;2023-05-07T14:08:57;5.05;;;1.10;;
51006;SDS011;37034;47.886;-3.904;2023-05-07T14:11:23;5.97;;;1.20;;
51006;SDS011;37034;47.886;-3.904;2023-05-07T14:13:48;5.78;;;1.17;;
51006;SDS011;37034;47.886;-3.904;2023-05-07T14:16:14;5.63;;;1.25;;
51006;SDS011;37034;47.886;-3.904;2023-05-07T14:18:40;8.60;;;1.60;;
51006;SDS011;37034;47.886;-3.904;2023-05-07T14:21:05;7.78;;;1.67;;
51006;SDS011;37034;47.886;-3.904;2023-05-07T14:23:32;6.60;;;1.35;;
51006;SDS011;37034;47.886;-3.904;2023-05-07T14:25:58;7.95;;;1.70;;
51006;SDS011;37034;47.886;-3.904;2023-05-07T14:28:23;7.28;;;1.25;;
51006;SDS011;37034;47.886;-3.904;2023-05-07T14:30:49;3.85;;;0.93;;
51006;SDS011;37034;47.886;-3.904;2023-05-07T14:33:15;5.72;;;1.73;;
51006;SDS011;37034;47.886;-3.904;2023-05-07T14:35:40;6.65;;;1.15;;
51006;SDS011;37034;47.886;-3.904;2023-05-07T14:38:10;8.68;;;1.98;;
51006;SDS011;37034;47.886;-3.904;2023-05-07T14:40:35;6.53;;;1.13;;
51006;SDS011;37034;47.886;-3.904;2023-05-07T14:43:01;6.32;;;1.63;;
51006;SDS011;37034;47.886;-3.904;2023-05-07T14:45:27;6.18;;;1.17;;
51006;SDS011;37034;47.886;-3.904;2023-05-07T14:47:52;4.90;;;1.10;;
51006;SDS011;37034;47.886;-3.904;2023-05-07T14:50:18;4.45;;;1.10;;
51006;SDS011;37034;47.886;-3.904;2023-05-07T14:52:44;5.00;;;1.05;;
51006;SDS011;37034;47.886;-3.904;2023-05-07T14:55:09;5.55;;;1.55;;
51006;SDS011;37034;47.886;-3.904;2023-05-07T14:57:35;5.78;;;1.40;;
51006;SDS011;37034;47.886;-3.904;2023-05-07T15:00:03;5.55;;;1.50;;
51006;SDS011;37034;47.886;-3.904;2023-05-07T15:02:29;5.55;;;1.20;;
51006;SDS011;37034;47.886;-3.904;2023-05-07T15:04:55;5.13;;;1.40;;
51006;SDS011;37034;47.886;-3.904;2023-05-07T15:07:21;5.03;;;1.08;;